Time;durP1;ratioP1;P1;durP2;ratioP2;P2;SDS_P1;SDS_P2;PMS_P1;PMS_P2;Temp;Humidity;BMP_temperature;BMP_pressure;BME280_temperature;BME280_humidity;BME280_pressure;Samples;Min_cycle;Max_cycle;Signal;HPM_P1;HPM_P2
2022/11/09 00:01:03;;;;;;;16.83;3.60;;;16.90;76.80;;;;;;7378976;19;20023;-86
2022/11/09 00:03:32;;;;;;;22.08;4.13;;;16.90;76.90;;;;;;7375866;19;20751;-86
2022/11/09 00:06:03;;;;;;;19.00;3.90;;;16.90;76.90;;;;;;7381863;19;20018;-86
2022/11/09 00:08:32;;;;;;;;;;;17.00;76.90;;;;;;7381390;19;20026;-86
2022/11/09 00:11:05;;;;;;;22.23;3.47;;;17.00;76.90;;;;;;7400039;19;19918;-87
2022/11/09 00:13:37;;;;;;;19.38;3.72;;;16.90;76.70;;;;;;7378301;19;20109;-87
2022/11/09 00:16:06;;;;;;;21.98;4.00;;;17.00;76.70;;;;;;7379727;19;20058;-87
2022/11/09 00:18:36;;;;;;;20.13;4.75;;;17.00;77.30;;;;;;7377286;19;20011;-79
2022/11/09 00:21:11;;;;;;;22.80;4.03;;;17.00;77.80;;;;;;7370920;19;20014;-81
2022/11/09 00:23:40;;;;;;;19.42;3.88;;;16.70;79.00;;;;;;7371965;19;20086;-80
2022/11/09 00:26:10;;;;;;;19.45;4.03;;;16.80;79.10;;;;;;7396449;19;20014;-81
2022/11/09 00:28:39;;;;;;;17.40;2.83;;;16.70;79.40;;;;;;7375299;19;20022;-80
2022/11/09 00:31:11;;;;;;;15.30;3.28;;;16.70;79.40;;;;;;7375458;19;20163;-80
2022/11/09 00:33:41;;;;;;;19.50;3.17;;;16.80;79.20;;;;;;7372931;19;20147;-81
2022/11/09 00:36:14;;;;;;;17.65;3.30;;;16.70;79.20;;;;;;7372197;19;20022;-81
2022/11/09 00:38:43;;;;;;;15.93;3.38;;;16.60;79.50;;;;;;7373627;19;20018;-81
2022/11/09 00:41:13;;;;;;;20.95;3.10;;;16.70;79.50;;;;;;7393110;19;20652;-81
2022/11/09 00:43:41;;;;;;;19.85;3.10;;;16.70;79.30;;;;;;7370224;19;20030;-81
2022/11/09 00:46:10;;;;;;;16.48;3.55;;;16.80;79.10;;;;;;7372448;19;20016;-81
2022/11/09 00:48:39;;;;;;;18.10;3.13;;;16.80;78.90;;;;;;7375952;19;20054;-81
2022/11/09 00:51:08;;;;;;;18.25;3.55;;;16.80;78.90;;;;;;7383073;19;20087;-81
2022/11/09 00:53:39;;;;;;;14.77;3.33;;;16.70;79.10;;;;;;7372619;19;20073;-81
2022/11/09 00:56:12;;;;;;;14.05;2.80;;;16.70;78.90;;;;;;7395272;19;20023;-82
2022/11/09 00:58:41;;;;;;;17.08;3.53;;;16.70;78.90;;;;;;7372143;19;20457;-82
2022/11/09 01:01:12;;;;;;;17.70;2.88;;;16.70;78.70;;;;;;7374027;19;20015;-82
2022/11/09 01:03:42;;;;;;;21.90;3.20;;;16.80;78.60;;;;;;7376625;19;20022;-82
2022/11/09 01:06:15;;;;;;;16.33;2.65;;;16.70;78.60;;;;;;7377004;19;20129;-82
2022/11/09 01:08:46;;;;;;;14.70;3.15;;;16.70;78.60;;;;;;7382199;19;20086;-82
2022/11/09 01:11:15;;;;;;;;;;;16.70;78.50;;;;;;7400073;19;20015;-82
2022/11/09 01:13:44;;;;;;;14.27;2.78;;;16.80;78.60;;;;;;7375202;19;20428;-82
2022/11/09 01:16:15;;;;;;;20.13;3.03;;;16.80;78.20;;;;;;7374326;19;20082;-82
2022/11/09 01:18:45;;;;;;;14.98;2.72;;;16.70;78.20;;;;;;7381748;19;20647;-82
2022/11/09 01:21:15;;;;;;;12.48;2.50;;;16.40;78.50;;;;;;7377668;19;20090;-82
2022/11/09 01:23:46;;;;;;;12.30;2.43;;;16.50;78.70;;;;;;7373753;19;20025;-81
2022/11/09 01:26:17;;;;;;;23.27;3.75;;;16.50;78.60;;;;;;7395709;19;20106;-82
2022/11/09 01:28:46;;;;;;;15.07;3.10;;;16.40;78.60;;;;;;7371824;19;20074;-82
2022/11/09 01:31:17;;;;;;;15.13;2.47;;;16.50;78.60;;;;;;7372864;19;20006;-81
2022/11/09 01:33:46;;;;;;;16.00;3.28;;;16.50;78.60;;;;;;7374020;19;20102;-81
2022/11/09 01:36:17;;;;;;;19.40;2.95;;;16.50;78.50;;;;;;7373121;19;20069;-82
2022/11/09 01:38:49;;;;;;;18.40;2.90;;;16.40;78.20;;;;;;7371441;19;20120;-81
2022/11/09 01:41:20;;;;;;;18.85;2.63;;;16.50;78.30;;;;;;7394660;19;20039;-82
2022/11/09 01:44:05;;;;;;;17.52;2.97;;;16.50;78.30;;;;;;7374056;19;20856;-81
2022/11/09 01:46:39;;;;;;;14.20;2.55;;;16.40;78.30;;;;;;7377236;19;20086;-81
2022/11/09 01:49:14;;;;;;;14.52;2.40;;;16.40;78.10;;;;;;7372627;19;20014;-81
2022/11/09 01:51:47;;;;;;;24.90;3.50;;;16.20;78.40;;;;;;7378413;19;20021;-81
2022/11/09 01:54:21;;;;;;;17.13;2.83;;;16.30;78.50;;;;;;7380023;19;20076;-81
2022/11/09 01:56:54;;;;;;;12.98;2.45;;;16.30;78.30;;;;;;7373166;19;20082;-81
2022/11/09 01:59:27;;;;;;;17.45;2.55;;;16.20;78.30;;;;;;7392397;19;20521;-80
2022/11/09 02:01:56;;;;;;;11.95;2.17;;;16.20;78.40;;;;;;7373879;19;20006;-80
2022/11/09 02:04:28;;;;;;;23.98;2.80;;;16.20;78.40;;;;;;7371202;19;20648;-81
2022/11/09 02:06:59;;;;;;;17.73;2.55;;;16.20;78.40;;;;;;7375570;19;20361;-81
2022/11/09 02:09:37;;;;;;;11.77;2.60;;;16.20;78.40;;;;;;7373144;19;20022;-82
2022/11/09 02:12:08;;;;;;;14.93;3.53;;;16.20;79.10;;;;;;7377078;19;20553;-81
2022/11/09 02:14:38;;;;;;;17.67;2.85;;;16.20;78.10;;;;;;7370517;19;20047;-80
2022/11/09 02:17:07;;;;;;;25.98;2.85;;;16.20;78.20;;;;;;7390881;19;20015;-81
2022/11/09 02:19:36;;;;;;;22.50;2.80;;;16.20;78.10;;;;;;7370692;19;20106;-82
2022/11/09 02:22:07;;;;;;;17.48;2.25;;;16.20;78.00;;;;;;7370280;19;20449;-81
2022/11/09 02:24:36;;;;;;;19.23;3.35;;;16.20;78.00;;;;;;7370077;19;20481;-81
2022/11/09 02:27:07;;;;;;;20.83;2.55;;;16.20;77.70;;;;;;7381407;19;20449;-81
2022/11/09 02:29:39;;;;;;;11.75;2.08;;;16.10;77.60;;;;;;7389141;19;20043;-81
2022/11/09 02:32:11;;;;;;;15.50;2.47;;;16.00;77.40;;;;;;7406310;19;20033;-81
2022/11/09 02:34:40;;;;;;;12.65;2.10;;;16.10;77.40;;;;;;7390653;19;20014;-81
2022/11/09 02:37:11;;;;;;;11.73;2.00;;;16.10;77.30;;;;;;7394686;19;20082;-81
2022/11/09 02:39:41;;;;;;;12.00;2.15;;;16.00;77.10;;;;;;7389146;19;20107;-80
2022/11/09 02:42:14;;;;;;;10.65;2.53;;;16.00;76.90;;;;;;7386698;19;20082;-80
2022/11/09 02:44:47;;;;;;;8.75;1.92;;;16.00;77.00;;;;;;7382869;19;20773;-80
2022/11/09 02:47:15;;;;;;;20.83;2.45;;;16.00;76.90;;;;;;7406368;19;20097;-81
2022/11/09 02:49:44;;;;;;;16.83;2.00;;;16.00;76.90;;;;;;7387496;19;20022;-81
2022/11/09 02:52:15;;;;;;;14.32;2.00;;;16.00;76.60;;;;;;7386325;19;20018;-80
2022/11/09 02:54:44;;;;;;;14.63;1.70;;;15.90;76.60;;;;;;7387928;19;20082;-81
2022/11/09 02:57:13;;;;;;;7.50;1.50;;;15.90;76.60;;;;;;7385836;19;20014;-81
2022/11/09 02:59:41;;;;;;;11.40;1.25;;;15.90;76.60;;;;;;7384689;19;20106;-82
2022/11/09 03:02:10;;;;;;;6.97;1.65;;;15.90;76.40;;;;;;7405988;19;20726;-81
2022/11/09 03:04:39;;;;;;;10.18;1.77;;;15.80;76.50;;;;;;7391670;19;20018;-81
2022/11/09 03:07:08;;;;;;;8.45;1.70;;;15.60;76.60;;;;;;7386517;19;20090;-81
2022/11/09 03:09:40;;;;;;;9.88;1.25;;;15.60;77.10;;;;;;7385409;19;20521;-81
2022/11/09 03:14:49;;;;;;;5.60;1.52;;;15.60;77.30;;;;;;7384352;19;20034;-81
2022/11/09 03:17:19;;;;;;;4.68;0.98;;;15.60;77.00;;;;;;7407559;19;20097;-82
2022/11/09 03:19:47;;;;;;;7.00;1.25;;;15.60;76.90;;;;;;7386566;19;20633;-81
2022/11/09 03:22:16;;;;;;;7.50;1.50;;;15.60;76.90;;;;;;7384802;19;20021;-81
2022/11/09 03:24:48;;;;;;;7.75;1.20;;;15.70;76.70;;;;;;7384636;19;20037;-81
2022/11/09 03:27:17;;;;;;;;;;;15.70;76.60;;;;;;7382690;19;20014;-81
2022/11/09 03:29:45;;;;;;;5.90;1.27;;;15.80;76.60;;;;;;7385198;19;20646;-81
2022/11/09 03:32:14;;;;;;;7.40;0.98;;;15.80;76.20;;;;;;7408330;19;20090;-82
2022/11/09 03:34:43;;;;;;;6.15;1.00;;;15.80;76.20;;;;;;7383912;19;20802;-82
2022/11/09 03:37:11;;;;;;;5.95;1.10;;;15.70;76.00;;;;;;7381745;19;20022;-81
2022/11/09 03:39:40;;;;;;;8.88;1.00;;;15.70;76.10;;;;;;7375423;19;20042;-81
2022/11/09 03:42:11;;;;;;;2.63;0.80;;;15.70;76.90;;;;;;7374479;19;20514;-80
2022/11/09 03:44:40;;;;;;;12.85;1.52;;;15.70;76.20;;;;;;7376651;19;20098;-80
2022/11/09 03:47:09;;;;;;;7.35;1.10;;;15.70;76.10;;;;;;7397274;19;20018;-80
2022/11/09 03:49:37;;;;;;;5.65;1.52;;;15.60;76.20;;;;;;7375892;19;20019;-81
2022/11/09 03:52:06;;;;;;;5.65;1.00;;;15.60;76.30;;;;;;7376627;19;20074;-81
2022/11/09 03:54:35;;;;;;;4.72;1.00;;;15.60;77.00;;;;;;7374205;19;20047;-81
2022/11/09 03:57:04;;;;;;;8.90;1.42;;;15.60;76.30;;;;;;7381097;19;20461;-81
2022/11/09 03:59:35;;;;;;;6.60;0.93;;;15.70;76.20;;;;;;7379644;19;20099;-80
2022/11/09 04:02:03;;;;;;;6.45;0.90;;;15.70;76.10;;;;;;7396581;19;20014;-81
2022/11/09 04:04:32;;;;;;;8.73;1.40;;;15.60;76.00;;;;;;7374286;19;20961;-81
2022/11/09 04:07:01;;;;;;;3.10;0.82;;;15.60;76.30;;;;;;7376218;19;20098;-81
2022/11/09 04:09:30;;;;;;;6.97;1.33;;;15.60;76.30;;;;;;7377113;19;21028;-81
2022/11/09 04:11:58;;;;;;;7.05;1.00;;;15.60;76.40;;;;;;7374161;19;20429;-81
2022/11/09 04:14:27;;;;;;;3.75;1.00;;;15.60;76.50;;;;;;7395719;19;20022;-81
2022/11/09 04:16:58;;;;;;;8.63;1.48;;;15.50;76.40;;;;;;7375274;19;20010;-79
2022/11/09 04:19:27;;;;;;;;;;;15.60;76.60;;;;;;7374550;19;20014;-81
2022/11/09 04:21:56;;;;;;;7.40;1.10;;;15.60;76.60;;;;;;7375497;19;19974;-81
2022/11/09 04:24:24;;;;;;;4.32;0.80;;;15.60;76.40;;;;;;7378546;19;20603;-81
2022/11/09 04:26:53;;;;;;;5.18;0.70;;;15.60;76.60;;;;;;7377157;19;20011;-81
2022/11/09 04:29:22;;;;;;;6.55;0.93;;;15.40;76.80;;;;;;7394233;19;20018;-81
2022/11/09 04:31:51;;;;;;;5.78;1.02;;;15.50;76.90;;;;;;7374578;19;20506;-81
2022/11/09 04:34:22;;;;;;;8.55;1.20;;;15.50;77.00;;;;;;7374349;19;20022;-82
2022/11/09 04:36:51;;;;;;;8.35;1.08;;;15.40;77.10;;;;;;7376004;19;20098;-81
2022/11/09 04:39:19;;;;;;;5.43;1.13;;;15.50;77.20;;;;;;7374213;19;20057;-81
2022/11/09 04:41:48;;;;;;;6.78;1.40;;;15.50;77.80;;;;;;7374934;19;20015;-81
2022/11/09 04:44:17;;;;;;;9.93;1.27;;;15.60;77.00;;;;;;7397295;19;20062;-81
2022/11/09 04:46:45;;;;;;;6.45;1.20;;;15.60;77.00;;;;;;7380866;19;20018;-82
2022/11/09 04:49:14;;;;;;;7.28;1.40;;;15.60;77.00;;;;;;7376902;19;20849;-82
2022/11/09 04:51:45;;;;;;;10.93;1.52;;;15.50;77.00;;;;;;7374357;19;20018;-81
2022/11/09 04:54:15;;;;;;;12.80;2.40;;;15.50;77.00;;;;;;7373902;19;20018;-81
2022/11/09 04:56:44;;;;;;;9.13;1.63;;;15.50;77.10;;;;;;7372618;19;20027;-80
2022/11/09 04:59:13;;;;;;;8.13;1.30;;;15.50;77.00;;;;;;7395309;19;20081;-80
2022/11/09 05:01:41;;;;;;;9.63;1.40;;;15.50;77.10;;;;;;7373192;19;20091;-81
2022/11/09 05:04:10;;;;;;;7.90;1.52;;;15.60;77.20;;;;;;7372285;19;20014;-82
2022/11/09 05:06:39;;;;;;;9.68;1.40;;;15.60;77.10;;;;;;7375587;19;20086;-81
2022/11/09 05:09:10;;;;;;;11.50;2.05;;;15.60;77.00;;;;;;7375832;19;20094;-81
2022/11/09 05:11:39;;;;;;;10.38;1.40;;;15.60;77.00;;;;;;7374551;19;20018;-81
2022/11/09 05:14:08;;;;;;;11.38;2.10;;;15.60;77.00;;;;;;7395534;19;20094;-81
2022/11/09 05:16:36;;;;;;;12.38;1.98;;;15.60;76.90;;;;;;7377271;19;20018;-81
2022/11/09 05:19:05;;;;;;;10.13;1.40;;;15.60;76.90;;;;;;7374096;19;20010;-79
2022/11/09 05:21:34;;;;;;;13.63;2.42;;;15.60;76.90;;;;;;7371736;19;20015;-80
2022/11/09 05:24:01;;;;;;;10.60;1.63;;;15.60;77.00;;;;;;7371792;19;20037;-80
2022/11/09 05:26:34;;;;;;;19.50;2.45;;;15.50;77.10;;;;;;7380387;19;20014;-79
2022/11/09 05:29:05;;;;;;;16.13;2.00;;;15.50;77.30;;;;;;7395381;19;20022;-81
2022/11/09 05:31:34;;;;;;;8.35;1.88;;;15.60;78.20;;;;;;7373660;19;20113;-81
2022/11/09 05:34:03;;;;;;;12.90;1.80;;;15.60;77.40;;;;;;7373974;19;20014;-81
2022/11/09 05:36:32;;;;;;;14.05;2.10;;;15.60;77.50;;;;;;7372951;19;20077;-81
2022/11/09 05:39:01;;;;;;;10.35;1.80;;;15.60;77.50;;;;;;7370634;19;20111;-81
2022/11/09 05:41:33;;;;;;;14.82;2.20;;;15.60;77.50;;;;;;7374981;19;20026;-80
2022/11/09 05:44:01;;;;;;;15.25;2.20;;;15.60;77.60;;;;;;7396879;19;20021;-81
2022/11/09 05:46:31;;;;;;;20.90;2.65;;;15.60;77.60;;;;;;7371742;19;20753;-81
2022/11/09 05:49:00;;;;;;;15.57;2.30;;;15.60;77.60;;;;;;7372328;19;20014;-81
2022/11/09 05:51:29;;;;;;;18.52;2.22;;;15.60;77.70;;;;;;7372013;19;20922;-81
2022/11/09 05:53:57;;;;;;;12.93;2.50;;;15.60;77.60;;;;;;7373737;19;20393;-80
2022/11/09 05:56:26;;;;;;;13.82;2.47;;;15.60;77.60;;;;;;7395291;19;20856;-80
2022/11/09 05:58:57;;;;;;;17.55;2.63;;;15.60;78.50;;;;;;7371945;19;20010;-81
2022/11/09 06:01:26;;;;;;;8.88;1.85;;;15.60;77.90;;;;;;7372105;19;20012;-81
2022/11/09 06:03:55;;;;;;;17.08;3.22;;;15.60;77.70;;;;;;7371898;19;20318;-81
2022/11/09 06:06:24;;;;;;;17.10;3.03;;;15.60;77.70;;;;;;7370785;19;20011;-80
2022/11/09 06:08:53;;;;;;;20.13;2.63;;;15.60;77.90;;;;;;7374053;19;20007;-83
2022/11/09 06:11:22;;;;;;;14.23;2.30;;;15.60;77.80;;;;;;7396031;19;20082;-82
2022/11/09 06:13:50;;;;;;;12.15;2.58;;;15.60;77.70;;;;;;7376815;19;20175;-84
2022/11/09 06:16:22;;;;;;;18.73;2.60;;;15.60;77.80;;;;;;7383206;19;20018;-83
2022/11/09 06:18:51;;;;;;;16.50;2.60;;;15.60;77.90;;;;;;7379290;19;20011;-85
2022/11/09 06:21:20;;;;;;;23.08;2.65;;;15.60;78.00;;;;;;7376515;19;20027;-86
2022/11/09 06:23:48;;;;;;;17.90;3.30;;;15.60;78.10;;;;;;7375691;19;20087;-83
2022/11/09 06:26:17;;;;;;;13.88;3.03;;;15.60;78.30;;;;;;7397165;19;20019;-80
2022/11/09 06:28:46;;;;;;;12.65;2.92;;;15.60;78.30;;;;;;7368154;19;20018;-82
2022/11/09 06:31:16;;;;;;;15.15;3.03;;;15.50;78.40;;;;;;7370582;19;20095;-78
2022/11/09 06:33:48;;;;;;;19.40;3.78;;;15.60;78.50;;;;;;7371064;19;20094;-82
2022/11/09 06:36:16;;;;;;;;;;;15.60;78.50;;;;;;7373280;19;20106;-78
2022/11/09 06:38:45;;;;;;;11.32;2.70;;;15.60;78.60;;;;;;7372089;19;19926;-80
2022/11/09 06:41:14;;;;;;;16.65;2.67;;;15.60;78.50;;;;;;7391745;19;20102;-80
2022/11/09 06:43:44;;;;;;;16.73;3.10;;;15.60;78.50;;;;;;7369728;19;20089;-80
2022/11/09 06:46:16;;;;;;;21.52;3.10;;;15.60;78.60;;;;;;7367188;19;20019;-80
2022/11/09 06:48:47;;;;;;;17.73;3.00;;;15.60;78.80;;;;;;7370352;19;20052;-80
2022/11/09 06:51:16;;;;;;;19.23;2.92;;;15.60;78.90;;;;;;7368685;19;20085;-80
2022/11/09 06:53:45;;;;;;;29.95;3.85;;;15.60;78.90;;;;;;7368465;19;20030;-79
2022/11/09 06:56:14;;;;;;;19.42;3.55;;;15.60;78.80;;;;;;7388604;19;20460;-80
2022/11/09 06:58:42;;;;;;;16.90;3.03;;;15.60;78.70;;;;;;7368996;19;20341;-80
2022/11/09 07:01:12;;;;;;;13.80;2.75;;;15.60;78.70;;;;;;7370053;19;20090;-80
2022/11/09 07:03:41;;;;;;;25.13;2.72;;;15.60;78.80;;;;;;7368103;19;20089;-80
2022/11/09 07:06:14;;;;;;;18.70;2.83;;;15.60;78.80;;;;;;7368441;19;20034;-80
2022/11/09 07:08:43;;;;;;;12.35;2.72;;;15.60;78.90;;;;;;7369670;19;20090;-80
2022/11/09 07:11:14;;;;;;;19.60;3.42;;;15.60;78.90;;;;;;7390758;19;20025;-80
2022/11/09 07:13:44;;;;;;;15.85;3.45;;;15.60;79.00;;;;;;7373495;19;20022;-80
2022/11/09 07:16:16;;;;;;;24.50;3.83;;;15.60;79.10;;;;;;7377412;19;20030;-80
2022/11/09 07:18:45;;;;;;;17.77;2.85;;;15.70;79.20;;;;;;7377048;19;20595;-80
2022/11/09 07:21:17;;;;;;;18.50;2.60;;;15.70;79.20;;;;;;7375921;19;20014;-80
2022/11/09 07:23:45;;;;;;;;;;;15.70;79.20;;;;;;7377560;19;20086;-80
2022/11/09 07:26:14;;;;;;;23.40;3.15;;;15.90;79.50;;;;;;7394724;19;20433;-80
2022/11/09 07:28:42;;;;;;;10.30;2.60;;;15.90;78.90;;;;;;7376420;19;20117;-80
2022/11/09 07:31:11;;;;;;;19.98;2.78;;;15.90;78.90;;;;;;7376158;19;20452;-80
2022/11/09 07:33:40;;;;;;;18.85;3.33;;;15.90;78.90;;;;;;7376332;19;20077;-79
2022/11/09 07:36:10;;;;;;;16.45;3.50;;;15.80;78.80;;;;;;7375386;19;20425;-78
2022/11/09 07:38:41;;;;;;;15.88;2.97;;;15.80;79.00;;;;;;7371955;19;20019;-80
2022/11/09 07:41:10;;;;;;;13.98;2.92;;;15.90;78.90;;;;;;7396659;19;20105;-80
2022/11/09 07:43:38;;;;;;;22.08;3.63;;;15.90;78.80;;;;;;7372956;19;20019;-80
2022/11/09 07:46:08;;;;;;;26.98;3.47;;;15.90;78.80;;;;;;7374640;19;20018;-80
2022/11/09 07:48:36;;;;;;;17.45;3.28;;;15.90;78.70;;;;;;7373524;19;20022;-80
2022/11/09 07:51:05;;;;;;;16.23;3.53;;;15.90;78.60;;;;;;7371686;19;20466;-81
2022/11/09 07:53:34;;;;;;;15.77;3.33;;;15.90;78.70;;;;;;7374934;19;20086;-79
2022/11/09 07:56:06;;;;;;;18.38;3.47;;;15.90;78.70;;;;;;7396715;19;20022;-80
2022/11/09 07:58:35;;;;;;;13.40;2.95;;;15.90;78.70;;;;;;7375737;19;20022;-80
2022/11/09 08:01:09;;;;;;;19.83;3.67;;;15.90;78.80;;;;;;7373763;19;20010;-80
2022/11/09 08:03:38;;;;;;;19.33;3.28;;;15.90;78.90;;;;;;7374434;19;20026;-80
2022/11/09 08:06:07;;;;;;;12.75;2.83;;;15.90;78.90;;;;;;7373585;19;20029;-80
2022/11/09 08:08:35;;;;;;;18.98;3.38;;;16.00;78.90;;;;;;7373706;19;20213;-80
2022/11/09 08:11:07;;;;;;;21.10;3.05;;;15.90;79.00;;;;;;7393266;19;20057;-80
2022/11/09 08:13:36;;;;;;;21.60;3.13;;;15.90;79.30;;;;;;7373534;19;20019;-80
2022/11/09 08:16:05;;;;;;;29.10;3.40;;;15.90;79.40;;;;;;7373444;19;20090;-80
2022/11/09 08:18:34;;;;;;;15.65;2.60;;;15.90;79.40;;;;;;7372799;19;20450;-80
2022/11/09 08:21:03;;;;;;;18.13;3.33;;;16.00;79.50;;;;;;7374540;19;20078;-80
2022/11/09 08:23:34;;;;;;;16.52;3.25;;;16.00;79.40;;;;;;7374882;19;20023;-81
2022/11/09 08:26:07;;;;;;;16.65;2.83;;;16.00;79.30;;;;;;7394454;19;20096;-81
2022/11/09 08:28:36;;;;;;;18.20;2.72;;;16.10;79.50;;;;;;7371885;19;20015;-80
2022/11/09 08:31:08;;;;;;;12.02;2.53;;;16.10;79.50;;;;;;7373392;19;20021;-80
2022/11/09 08:33:37;;;;;;;;;;;16.10;79.20;;;;;;7373767;19;20541;-80
2022/11/09 08:36:11;;;;;;;20.50;3.17;;;16.20;79.10;;;;;;7373929;19;20015;-79
2022/11/09 08:38:40;;;;;;;14.82;2.50;;;16.10;79.00;;;;;;7373991;19;20098;-79
2022/11/09 08:41:12;;;;;;;26.67;2.97;;;16.00;79.10;;;;;;7398272;19;20015;-80
2022/11/09 08:43:41;;;;;;;25.52;3.50;;;16.00;79.40;;;;;;7374038;19;20076;-80
2022/11/09 08:46:10;;;;;;;22.38;2.78;;;16.10;79.40;;;;;;7373226;19;20380;-80
2022/11/09 08:48:38;;;;;;;12.07;2.65;;;16.10;79.30;;;;;;7375925;19;20116;-80
2022/11/09 08:51:07;;;;;;;17.48;2.97;;;16.10;79.20;;;;;;7374841;19;20096;-80
2022/11/09 08:53:36;;;;;;;20.20;2.95;;;16.10;79.10;;;;;;7374523;19;20093;-79
2022/11/09 08:56:08;;;;;;;18.02;2.05;;;16.10;79.10;;;;;;7394138;19;20422;-80
2022/11/09 08:58:40;;;;;;;14.85;2.88;;;16.20;79.20;;;;;;7372170;19;20035;-81
2022/11/09 09:01:09;;;;;;;16.45;3.10;;;16.20;79.00;;;;;;7371819;19;20094;-81
2022/11/09 09:03:38;;;;;;;19.60;2.25;;;16.20;79.00;;;;;;7371124;19;20029;-80
2022/11/09 09:06:08;;;;;;;16.02;2.63;;;16.30;78.90;;;;;;7370770;19;20151;-80
2022/11/09 09:08:37;;;;;;;14.75;2.83;;;16.20;78.70;;;;;;7371797;19;20122;-80
2022/11/09 09:11:06;;;;;;;18.00;3.03;;;16.20;78.60;;;;;;7390979;19;20389;-81
2022/11/09 09:13:35;;;;;;;16.30;2.28;;;16.30;78.70;;;;;;7370929;19;20049;-81
2022/11/09 09:16:14;;;;;;;18.45;2.80;;;16.40;78.70;;;;;;7372919;19;20102;-81
2022/11/09 09:18:43;;;;;;;16.15;2.40;;;16.40;78.50;;;;;;7373007;19;20113;-80
2022/11/09 09:21:12;;;;;;;13.52;2.28;;;16.50;78.20;;;;;;7369916;19;20832;-81
2022/11/09 09:23:41;;;;;;;18.10;2.50;;;16.50;77.70;;;;;;7372015;19;20015;-80
2022/11/09 09:26:10;;;;;;;14.80;2.67;;;16.50;77.80;;;;;;7390937;19;20460;-81
2022/11/09 09:28:39;;;;;;;20.05;2.60;;;16.50;77.60;;;;;;7371090;19;20024;-81
2022/11/09 09:31:08;;;;;;;14.80;2.30;;;16.40;77.40;;;;;;7370535;19;20054;-81
2022/11/09 09:33:39;;;;;;;19.63;2.60;;;16.40;77.60;;;;;;7370696;19;20010;-80
2022/11/09 09:36:09;;;;;;;18.65;2.15;;;16.50;77.90;;;;;;7367645;19;20088;-80
2022/11/09 09:38:37;;;;;;;14.38;2.35;;;16.50;78.00;;;;;;7371014;19;20450;-80
2022/11/09 09:41:08;;;;;;;16.65;2.47;;;16.50;77.60;;;;;;7393028;19;20037;-81
2022/11/09 09:43:42;;;;;;;16.30;2.30;;;16.40;78.20;;;;;;7371436;19;20077;-81
2022/11/09 09:46:21;;;;;;;22.90;2.55;;;16.40;77.70;;;;;;7369119;19;20098;-81
2022/11/09 09:48:58;;;;;;;10.90;2.30;;;16.50;78.10;;;;;;7370365;19;20078;-80
2022/11/09 09:51:32;;;;;;;15.60;2.45;;;16.60;77.60;;;;;;7368967;19;20086;-80
2022/11/09 09:54:08;;;;;;;19.23;2.65;;;16.50;77.30;;;;;;7373583;19;20352;-80
2022/11/09 09:56:41;;;;;;;15.00;2.40;;;16.60;78.20;;;;;;7369011;19;20333;-80
2022/11/09 09:59:32;;;;;;;20.63;2.90;;;16.70;77.40;;;;;;7392261;19;20030;-81
2022/11/09 10:02:01;;;;;;;16.20;2.95;;;16.80;77.50;;;;;;7371566;19;20010;-81
2022/11/09 10:04:37;;;;;;;13.98;2.33;;;16.90;77.20;;;;;;7371319;19;20664;-81
2022/11/09 10:07:13;;;;;;;24.67;2.90;;;16.90;77.00;;;;;;7369107;19;20022;-81
2022/11/09 10:10:19;;;;;;;11.35;2.10;;;16.90;76.40;;;;;;7372314;19;20025;-81
2022/11/09 10:13:05;;;;;;;16.88;2.17;;;16.70;76.40;;;;;;7370228;19;20011;-81
2022/11/09 10:15:43;;;;;;;17.15;2.72;;;16.70;76.70;;;;;;7369073;19;20025;-81
2022/11/09 10:18:34;;;;;;;19.05;2.58;;;16.90;77.30;;;;;;7369828;19;20290;-81
2022/11/09 10:21:22;;;;;;;9.90;1.90;;;16.90;76.10;;;;;;7373059;19;20016;-81
2022/11/09 10:24:05;;;;;;;13.25;2.60;;;16.90;75.90;;;;;;7372736;19;20033;-81
2022/11/09 10:26:41;;;;;;;21.48;2.90;;;16.70;76.50;;;;;;7368578;19;20118;-80
2022/11/09 10:29:20;;;;;;;14.07;2.20;;;16.90;76.60;;;;;;7394093;19;20102;-81
2022/11/09 10:31:50;;;;;;;17.00;2.28;;;17.00;75.70;;;;;;7373199;19;20406;-81
2022/11/09 10:34:21;;;;;;;17.00;2.17;;;17.00;75.20;;;;;;7371860;19;20090;-81
2022/11/09 10:37:03;;;;;;;20.20;2.42;;;17.00;75.20;;;;;;7373673;19;20082;-81
2022/11/09 10:39:37;;;;;;;;;;;16.80;75.80;;;;;;7374693;19;20019;-81
2022/11/09 10:42:06;;;;;;;18.90;2.55;;;16.60;76.10;;;;;;7370827;19;19986;-81
2022/11/09 10:44:34;;;;;;;16.75;2.90;;;16.80;76.10;;;;;;7367082;19;20926;-81
2022/11/09 10:47:11;;;;;;;19.30;2.97;;;16.80;75.60;;;;;;7390479;19;20015;-81
2022/11/09 10:49:41;;;;;;;13.18;2.22;;;16.90;75.60;;;;;;7377460;19;20102;-80
2022/11/09 10:52:38;;;;;;;18.63;2.40;;;16.90;75.30;;;;;;7375508;19;20022;-81
2022/11/09 10:55:26;;;;;;;10.20;2.20;;;17.00;75.20;;;;;;7374447;19;20035;-81
2022/11/09 10:57:59;;;;;;;28.17;2.55;;;17.00;75.00;;;;;;7377028;19;20039;-81
2022/11/09 11:00:28;;;;;;;22.58;2.92;;;17.00;74.50;;;;;;7377560;19;20035;-81
2022/11/09 11:02:57;;;;;;;17.27;2.80;;;17.00;74.20;;;;;;7378867;19;20086;-81
2022/11/09 11:05:31;;;;;;;15.75;2.50;;;17.00;74.30;;;;;;7397368;19;20082;-81
2022/11/09 11:08:23;;;;;;;11.30;2.20;;;17.00;74.70;;;;;;7377247;19;20074;-81
2022/11/09 11:10:52;;;;;;;17.40;3.08;;;16.90;74.20;;;;;;7376109;19;20021;-81
2022/11/09 11:13:25;;;;;;;21.30;2.88;;;17.00;74.50;;;;;;7374678;19;20025;-82
2022/11/09 11:15:54;;;;;;;15.82;1.98;;;17.10;74.40;;;;;;7376620;19;20043;-81
2022/11/09 11:18:26;;;;;;;14.13;2.55;;;17.20;74.00;;;;;;7377628;19;20017;-81
2022/11/09 11:21:14;;;;;;;8.98;2.03;;;17.40;73.80;;;;;;7377661;19;20054;-81
2022/11/09 11:23:46;;;;;;;17.38;2.55;;;17.50;73.30;;;;;;7376555;19;20011;-80
2022/11/09 11:26:21;;;;;;;;;;;17.50;72.50;;;;;;7399969;19;20028;-81
2022/11/09 11:28:53;;;;;;;7.15;1.80;;;17.60;72.70;;;;;;7379086;19;19929;-81
2022/11/09 11:31:23;;;;;;;20.80;2.80;;;17.50;72.00;;;;;;7375365;19;20017;-81
2022/11/09 11:33:51;;;;;;;13.63;1.77;;;17.20;71.70;;;;;;7376887;19;20011;-81
2022/11/09 11:36:28;;;;;;;14.38;2.13;;;17.20;71.70;;;;;;7376418;19;20011;-81
2022/11/09 11:39:11;;;;;;;16.33;2.38;;;17.20;72.00;;;;;;7374855;19;20021;-81
2022/11/09 11:42:11;;;;;;;17.35;2.50;;;17.20;72.20;;;;;;7374898;19;20021;-80
2022/11/09 11:44:55;;;;;;;14.10;1.83;;;17.00;71.70;;;;;;7374828;19;20093;-80
2022/11/09 11:47:29;;;;;;;18.83;2.50;;;17.00;71.70;;;;;;7395508;19;20082;-79
2022/11/09 11:50:08;;;;;;;21.77;2.63;;;16.90;71.60;;;;;;7376781;19;20366;-80
2022/11/09 11:52:52;;;;;;;18.92;2.42;;;16.90;72.00;;;;;;7374863;19;20057;-80
2022/11/09 11:55:42;;;;;;;10.43;2.25;;;17.00;72.30;;;;;;7376400;19;20022;-81
2022/11/09 11:58:24;;;;;;;17.48;2.00;;;17.10;72.40;;;;;;7374486;19;20028;-81
2022/11/09 12:01:00;;;;;;;13.77;2.03;;;17.20;72.20;;;;;;7374360;19;20014;-80
2022/11/09 12:03:44;;;;;;;16.73;1.63;;;17.40;71.90;;;;;;7377316;19;20102;-80
2022/11/09 12:06:34;;;;;;;15.02;1.92;;;17.30;71.10;;;;;;7375124;19;20010;-82
2022/11/09 12:09:39;;;;;;;12.03;2.30;;;17.40;71.30;;;;;;7373862;19;20022;-81
2022/11/09 12:12:23;;;;;;;14.38;2.08;;;17.60;70.80;;;;;;7372694;19;20171;-81
2022/11/09 12:15:06;;;;;;;11.13;2.00;;;17.70;70.50;;;;;;7372884;19;20011;-81
2022/11/09 12:17:45;;;;;;;14.60;1.73;;;17.70;71.30;;;;;;7370281;19;20025;-81
2022/11/09 12:20:23;;;;;;;14.73;2.35;;;17.70;69.90;;;;;;7395129;19;20011;-81
2022/11/09 12:23:03;;;;;;;10.13;1.90;;;17.80;69.90;;;;;;7374052;19;20405;-81
2022/11/09 12:25:42;;;;;;;11.20;1.80;;;18.00;69.10;;;;;;7372463;19;20010;-81
2022/11/09 12:28:29;;;;;;;11.38;1.55;;;18.10;69.20;;;;;;7372033;19;20017;-81
2022/11/09 12:31:07;;;;;;;12.35;1.42;;;18.20;67.90;;;;;;7372977;19;20090;-81
2022/11/09 12:33:44;;;;;;;15.13;1.73;;;18.00;67.10;;;;;;7371620;19;20015;-80
2022/11/09 12:36:18;;;;;;;12.50;1.73;;;18.10;67.40;;;;;;7374751;19;20010;-81
2022/11/09 12:38:57;;;;;;;12.30;2.40;;;18.10;67.00;;;;;;7373022;19;20010;-81
2022/11/09 12:41:31;;;;;;;11.70;1.90;;;18.00;67.70;;;;;;7394841;19;20401;-82
2022/11/09 12:44:08;;;;;;;11.00;1.73;;;18.10;67.70;;;;;;7373129;19;20010;-81
2022/11/09 12:46:41;;;;;;;9.57;1.92;;;18.00;67.20;;;;;;7372434;19;20121;-81
2022/11/09 12:49:27;;;;;;;12.73;1.50;;;18.10;66.40;;;;;;7370803;19;20524;-81
2022/11/09 12:51:56;;;;;;;6.47;1.42;;;17.80;67.20;;;;;;7375722;19;20086;-81
2022/11/09 12:54:25;;;;;;;10.35;1.48;;;17.80;67.70;;;;;;7375206;19;20023;-82
2022/11/09 12:56:58;;;;;;;10.13;1.90;;;17.90;67.90;;;;;;7373355;19;20441;-81
2022/11/09 12:59:50;;;;;;;11.50;1.52;;;17.90;67.80;;;;;;7394882;19;20022;-81
2022/11/09 13:02:26;;;;;;;12.75;1.50;;;17.50;67.70;;;;;;7375974;19;20010;-81
2022/11/09 13:05:00;;;;;;;12.70;1.52;;;17.70;68.00;;;;;;7376000;19;20032;-81
2022/11/09 13:07:45;;;;;;;11.00;1.65;;;17.60;67.70;;;;;;7374137;19;20031;-80